sensor_id;sensor_type;location;lat;lon;timestamp;P1;durP1;ratioP1;P2;durP2;ratioP2
7675;SDS011;3880;51.464;-2.566;2022-10-14T00:01:02;20.00;;;9.33;;
7675;SDS011;3880;51.464;-2.566;2022-10-14T00:03:30;19.80;;;9.43;;
7675;SDS011;3880;51.464;-2.566;2022-10-14T00:05:57;18.47;;;9.20;;
7675;SDS011;3880;51.464;-2.566;2022-10-14T00:08:26;27.93;;;10.97;;
7675;SDS011;3880;51.464;-2.566;2022-10-14T00:10:53;23.57;;;10.50;;
7675;SDS011;3880;51.464;-2.566;2022-10-14T00:13:20;15.37;;;7.83;;
7675;SDS011;3880;51.464;-2.566;2022-10-14T00:15:47;19.80;;;9.00;;
7675;SDS011;3880;51.464;-2.566;2022-10-14T00:18:14;18.07;;;8.47;;
7675;SDS011;3880;51.464;-2.566;2022-10-14T00:20:41;22.33;;;9.57;;
7675;SDS011;3880;51.464;-2.566;2022-10-14T00:23:08;18.90;;;9.67;;
7675;SDS011;3880;51.464;-2.566;2022-10-14T00:25:40;21.40;;;9.97;;
7675;SDS011;3880;51.464;-2.566;2022-10-14T00:28:07;19.30;;;8.90;;
7675;SDS011;3880;51.464;-2.566;2022-10-14T00:30:34;19.53;;;10.10;;
7675;SDS011;3880;51.464;-2.566;2022-10-14T00:33:01;20.40;;;11.20;;
7675;SDS011;3880;51.464;-2.566;2022-10-14T00:35:28;18.87;;;8.97;;
7675;SDS011;3880;51.464;-2.566;2022-10-14T00:37:56;19.47;;;9.13;;
7675;SDS011;3880;51.464;-2.566;2022-10-14T00:40:23;21.47;;;9.93;;
7675;SDS011;3880;51.464;-2.566;2022-10-14T00:42:52;28.37;;;10.10;;
7675;SDS011;3880;51.464;-2.566;2022-10-14T00:45:19;18.13;;;9.20;;
7675;SDS011;3880;51.464;-2.566;2022-10-14T00:47:48;20.97;;;9.10;;
7675;SDS011;3880;51.464;-2.566;2022-10-14T00:50:17;23.33;;;9.67;;
7675;SDS011;3880;51.464;-2.566;2022-10-14T00:52:46;18.53;;;9.37;;
7675;SDS011;3880;51.464;-2.566;2022-10-14T00:55:14;17.83;;;10.63;;
7675;SDS011;3880;51.464;-2.566;2022-10-14T00:57:42;16.10;;;9.50;;
7675;SDS011;3880;51.464;-2.566;2022-10-14T01:00:12;23.30;;;10.20;;
7675;SDS011;3880;51.464;-2.566;2022-10-14T01:02:41;18.53;;;10.00;;
7675;SDS011;3880;51.464;-2.566;2022-10-14T01:05:08;19.83;;;9.93;;
7675;SDS011;3880;51.464;-2.566;2022-10-14T01:07:39;19.40;;;9.27;;
7675;SDS011;3880;51.464;-2.566;2022-10-14T01:10:19;19.63;;;9.77;;
7675;SDS011;3880;51.464;-2.566;2022-10-14T01:13:00;20.60;;;10.03;;
7675;SDS011;3880;51.464;-2.566;2022-10-14T01:15:36;19.30;;;9.17;;
7675;SDS011;3880;51.464;-2.566;2022-10-14T01:18:17;18.73;;;9.77;;
7675;SDS011;3880;51.464;-2.566;2022-10-14T01:21:00;19.57;;;9.50;;
7675;SDS011;3880;51.464;-2.566;2022-10-14T01:26:55;21.90;;;9.63;;
7675;SDS011;3880;51.464;-2.566;2022-10-14T01:32:26;22.50;;;9.37;;
7675;SDS011;3880;51.464;-2.566;2022-10-14T01:34:57;13.87;;;8.27;;
7675;SDS011;3880;51.464;-2.566;2022-10-14T01:37:32;15.80;;;8.33;;
7675;SDS011;3880;51.464;-2.566;2022-10-14T01:40:04;15.20;;;8.80;;
7675;SDS011;3880;51.464;-2.566;2022-10-14T01:42:37;17.23;;;9.33;;
7675;SDS011;3880;51.464;-2.566;2022-10-14T01:45:09;14.87;;;8.40;;
7675;SDS011;3880;51.464;-2.566;2022-10-14T01:47:40;20.73;;;8.70;;
7675;SDS011;3880;51.464;-2.566;2022-10-14T01:50:09;13.97;;;7.93;;
7675;SDS011;3880;51.464;-2.566;2022-10-14T01:52:42;12.43;;;8.33;;
7675;SDS011;3880;51.464;-2.566;2022-10-14T01:55:14;13.70;;;8.30;;
7675;SDS011;3880;51.464;-2.566;2022-10-14T01:57:44;12.57;;;8.67;;
7675;SDS011;3880;51.464;-2.566;2022-10-14T02:00:15;14.50;;;8.33;;
7675;SDS011;3880;51.464;-2.566;2022-10-14T02:02:42;14.60;;;8.00;;
7675;SDS011;3880;51.464;-2.566;2022-10-14T02:05:12;16.40;;;7.33;;
7675;SDS011;3880;51.464;-2.566;2022-10-14T02:07:46;17.13;;;9.20;;
7675;SDS011;3880;51.464;-2.566;2022-10-14T02:10:21;15.87;;;8.00;;
7675;SDS011;3880;51.464;-2.566;2022-10-14T02:13:00;13.90;;;7.13;;
7675;SDS011;3880;51.464;-2.566;2022-10-14T02:15:41;16.73;;;7.37;;
7675;SDS011;3880;51.464;-2.566;2022-10-14T02:18:17;18.20;;;8.07;;
7675;SDS011;3880;51.464;-2.566;2022-10-14T02:20:52;12.10;;;7.60;;
7675;SDS011;3880;51.464;-2.566;2022-10-14T02:23:24;8.93;;;6.50;;
7675;SDS011;3880;51.464;-2.566;2022-10-14T02:25:55;9.80;;;6.40;;
7675;SDS011;3880;51.464;-2.566;2022-10-14T02:28:24;9.53;;;6.73;;
7675;SDS011;3880;51.464;-2.566;2022-10-14T02:30:56;8.50;;;6.60;;
7675;SDS011;3880;51.464;-2.566;2022-10-14T02:33:27;11.23;;;6.83;;
7675;SDS011;3880;51.464;-2.566;2022-10-14T02:35:58;23.10;;;7.80;;
7675;SDS011;3880;51.464;-2.566;2022-10-14T02:38:28;8.10;;;6.47;;
7675;SDS011;3880;51.464;-2.566;2022-10-14T02:40:56;11.27;;;6.47;;
7675;SDS011;3880;51.464;-2.566;2022-10-14T02:43:28;8.97;;;5.83;;
7675;SDS011;3880;51.464;-2.566;2022-10-14T02:45:57;10.83;;;6.93;;
7675;SDS011;3880;51.464;-2.566;2022-10-14T02:48:27;12.20;;;6.20;;
7675;SDS011;3880;51.464;-2.566;2022-10-14T02:50:54;9.10;;;6.40;;
7675;SDS011;3880;51.464;-2.566;2022-10-14T02:53:21;11.47;;;5.93;;
7675;SDS011;3880;51.464;-2.566;2022-10-14T02:55:48;14.13;;;6.00;;
7675;SDS011;3880;51.464;-2.566;2022-10-14T02:58:15;7.73;;;5.47;;
7675;SDS011;3880;51.464;-2.566;2022-10-14T03:00:43;7.47;;;5.40;;
7675;SDS011;3880;51.464;-2.566;2022-10-14T03:03:12;11.63;;;5.10;;
7675;SDS011;3880;51.464;-2.566;2022-10-14T03:05:39;10.00;;;5.07;;
7675;SDS011;3880;51.464;-2.566;2022-10-14T03:08:06;7.57;;;4.83;;
7675;SDS011;3880;51.464;-2.566;2022-10-14T03:10:33;8.63;;;4.97;;
7675;SDS011;3880;51.464;-2.566;2022-10-14T03:13:00;9.07;;;4.93;;
7675;SDS011;3880;51.464;-2.566;2022-10-14T03:15:28;7.33;;;5.00;;
7675;SDS011;3880;51.464;-2.566;2022-10-14T03:17:55;5.77;;;4.40;;
7675;SDS011;3880;51.464;-2.566;2022-10-14T03:20:23;7.27;;;5.47;;
7675;SDS011;3880;51.464;-2.566;2022-10-14T03:22:50;9.40;;;5.00;;
7675;SDS011;3880;51.464;-2.566;2022-10-14T03:25:17;9.00;;;5.43;;
7675;SDS011;3880;51.464;-2.566;2022-10-14T03:27:44;11.20;;;5.27;;
7675;SDS011;3880;51.464;-2.566;2022-10-14T03:30:11;9.07;;;5.47;;
7675;SDS011;3880;51.464;-2.566;2022-10-14T03:32:38;6.77;;;5.03;;
7675;SDS011;3880;51.464;-2.566;2022-10-14T03:35:05;10.90;;;6.63;;
7675;SDS011;3880;51.464;-2.566;2022-10-14T03:37:35;9.83;;;5.83;;
7675;SDS011;3880;51.464;-2.566;2022-10-14T03:40:03;8.33;;;5.87;;
7675;SDS011;3880;51.464;-2.566;2022-10-14T03:42:30;9.23;;;5.53;;
7675;SDS011;3880;51.464;-2.566;2022-10-14T03:44:57;8.77;;;6.17;;
7675;SDS011;3880;51.464;-2.566;2022-10-14T03:47:24;11.30;;;5.97;;
7675;SDS011;3880;51.464;-2.566;2022-10-14T03:49:51;7.80;;;6.07;;
7675;SDS011;3880;51.464;-2.566;2022-10-14T03:52:18;8.20;;;6.43;;
7675;SDS011;3880;51.464;-2.566;2022-10-14T03:54:47;8.07;;;5.47;;
7675;SDS011;3880;51.464;-2.566;2022-10-14T03:57:14;18.50;;;6.40;;
7675;SDS011;3880;51.464;-2.566;2022-10-14T03:59:41;6.50;;;5.30;;
7675;SDS011;3880;51.464;-2.566;2022-10-14T04:02:08;8.20;;;6.10;;
7675;SDS011;3880;51.464;-2.566;2022-10-14T04:04:35;7.03;;;5.60;;
7675;SDS011;3880;51.464;-2.566;2022-10-14T04:07:02;7.47;;;5.73;;
7675;SDS011;3880;51.464;-2.566;2022-10-14T04:09:29;6.63;;;5.97;;
7675;SDS011;3880;51.464;-2.566;2022-10-14T04:11:57;13.13;;;7.33;;
7675;SDS011;3880;51.464;-2.566;2022-10-14T04:14:24;7.80;;;5.87;;
7675;SDS011;3880;51.464;-2.566;2022-10-14T04:16:51;6.73;;;5.73;;
7675;SDS011;3880;51.464;-2.566;2022-10-14T04:19:18;8.90;;;6.10;;
7675;SDS011;3880;51.464;-2.566;2022-10-14T04:21:45;13.57;;;6.23;;
7675;SDS011;3880;51.464;-2.566;2022-10-14T04:24:12;8.83;;;5.47;;
7675;SDS011;3880;51.464;-2.566;2022-10-14T04:26:41;9.03;;;5.33;;
7675;SDS011;3880;51.464;-2.566;2022-10-14T04:29:09;8.13;;;5.30;;
7675;SDS011;3880;51.464;-2.566;2022-10-14T04:31:36;6.97;;;5.17;;
7675;SDS011;3880;51.464;-2.566;2022-10-14T04:34:04;7.63;;;5.40;;
7675;SDS011;3880;51.464;-2.566;2022-10-14T04:36:31;9.33;;;5.90;;
7675;SDS011;3880;51.464;-2.566;2022-10-14T04:38:58;8.80;;;5.60;;
7675;SDS011;3880;51.464;-2.566;2022-10-14T04:41:25;11.53;;;6.70;;
7675;SDS011;3880;51.464;-2.566;2022-10-14T04:43:52;16.57;;;5.70;;
7675;SDS011;3880;51.464;-2.566;2022-10-14T04:46:21;9.10;;;5.73;;
7675;SDS011;3880;51.464;-2.566;2022-10-14T04:48:48;11.20;;;5.50;;
7675;SDS011;3880;51.464;-2.566;2022-10-14T04:51:15;7.40;;;5.27;;
7675;SDS011;3880;51.464;-2.566;2022-10-14T04:53:42;9.17;;;6.20;;
7675;SDS011;3880;51.464;-2.566;2022-10-14T04:56:09;6.77;;;5.57;;
7675;SDS011;3880;51.464;-2.566;2022-10-14T04:58:36;5.60;;;5.00;;
7675;SDS011;3880;51.464;-2.566;2022-10-14T05:01:03;7.70;;;5.03;;
7675;SDS011;3880;51.464;-2.566;2022-10-14T05:03:31;8.80;;;5.80;;
7675;SDS011;3880;51.464;-2.566;2022-10-14T05:05:58;9.13;;;5.13;;
7675;SDS011;3880;51.464;-2.566;2022-10-14T05:08:26;6.63;;;4.60;;
7675;SDS011;3880;51.464;-2.566;2022-10-14T05:10:53;6.90;;;5.47;;
7675;SDS011;3880;51.464;-2.566;2022-10-14T05:13:20;6.70;;;5.17;;
7675;SDS011;3880;51.464;-2.566;2022-10-14T05:15:47;6.63;;;4.90;;
7675;SDS011;3880;51.464;-2.566;2022-10-14T05:18:14;6.40;;;5.00;;
7675;SDS011;3880;51.464;-2.566;2022-10-14T05:20:42;8.97;;;5.13;;
7675;SDS011;3880;51.464;-2.566;2022-10-14T05:23:09;11.40;;;5.90;;
7675;SDS011;3880;51.464;-2.566;2022-10-14T05:25:36;9.87;;;6.13;;
7675;SDS011;3880;51.464;-2.566;2022-10-14T05:28:03;8.30;;;5.53;;
7675;SDS011;3880;51.464;-2.566;2022-10-14T05:30:30;6.10;;;5.50;;
7675;SDS011;3880;51.464;-2.566;2022-10-14T05:32:58;13.07;;;6.60;;
7675;SDS011;3880;51.464;-2.566;2022-10-14T05:35:25;9.37;;;5.50;;
7675;SDS011;3880;51.464;-2.566;2022-10-14T05:37:54;7.47;;;5.23;;
7675;SDS011;3880;51.464;-2.566;2022-10-14T05:40:22;11.63;;;5.43;;
7675;SDS011;3880;51.464;-2.566;2022-10-14T05:42:49;6.70;;;5.10;;
7675;SDS011;3880;51.464;-2.566;2022-10-14T05:45:16;7.87;;;4.57;;
7675;SDS011;3880;51.464;-2.566;2022-10-14T05:47:44;5.37;;;4.87;;
7675;SDS011;3880;51.464;-2.566;2022-10-14T05:50:11;7.13;;;4.87;;
7675;SDS011;3880;51.464;-2.566;2022-10-14T05:52:39;6.70;;;4.67;;
7675;SDS011;3880;51.464;-2.566;2022-10-14T05:55:08;7.63;;;5.10;;
7675;SDS011;3880;51.464;-2.566;2022-10-14T05:57:35;6.63;;;4.50;;
7675;SDS011;3880;51.464;-2.566;2022-10-14T06:00:03;7.03;;;4.50;;
7675;SDS011;3880;51.464;-2.566;2022-10-14T06:02:31;9.80;;;4.80;;
7675;SDS011;3880;51.464;-2.566;2022-10-14T06:04:58;6.17;;;4.77;;
7675;SDS011;3880;51.464;-2.566;2022-10-14T06:07:25;8.70;;;4.87;;
7675;SDS011;3880;51.464;-2.566;2022-10-14T06:09:52;6.73;;;5.53;;
7675;SDS011;3880;51.464;-2.566;2022-10-14T06:12:20;5.63;;;4.10;;
7675;SDS011;3880;51.464;-2.566;2022-10-14T06:14:47;8.93;;;4.87;;
7675;SDS011;3880;51.464;-2.566;2022-10-14T06:17:14;13.70;;;5.47;;
7675;SDS011;3880;51.464;-2.566;2022-10-14T06:19:41;9.40;;;4.70;;
7675;SDS011;3880;51.464;-2.566;2022-10-14T06:22:08;6.80;;;4.83;;
7675;SDS011;3880;51.464;-2.566;2022-10-14T06:24:36;8.07;;;4.73;;
7675;SDS011;3880;51.464;-2.566;2022-10-14T06:27:02;6.87;;;4.77;;
7675;SDS011;3880;51.464;-2.566;2022-10-14T06:29:31;6.20;;;4.60;;
7675;SDS011;3880;51.464;-2.566;2022-10-14T06:32:03;5.33;;;4.30;;
7675;SDS011;3880;51.464;-2.566;2022-10-14T06:34:30;11.97;;;5.40;;
7675;SDS011;3880;51.464;-2.566;2022-10-14T06:36:58;7.97;;;4.30;;
7675;SDS011;3880;51.464;-2.566;2022-10-14T06:39:25;6.00;;;3.90;;
7675;SDS011;3880;51.464;-2.566;2022-10-14T06:41:52;5.17;;;4.70;;
7675;SDS011;3880;51.464;-2.566;2022-10-14T06:44:19;5.50;;;4.57;;
7675;SDS011;3880;51.464;-2.566;2022-10-14T06:46:48;5.70;;;3.97;;
7675;SDS011;3880;51.464;-2.566;2022-10-14T06:49:15;6.67;;;4.30;;
7675;SDS011;3880;51.464;-2.566;2022-10-14T06:51:42;5.00;;;4.23;;
7675;SDS011;3880;51.464;-2.566;2022-10-14T06:54:12;7.00;;;4.80;;
7675;SDS011;3880;51.464;-2.566;2022-10-14T06:56:39;4.57;;;4.10;;
7675;SDS011;3880;51.464;-2.566;2022-10-14T06:59:06;5.00;;;4.50;;
7675;SDS011;3880;51.464;-2.566;2022-10-14T07:01:33;7.60;;;4.87;;
7675;SDS011;3880;51.464;-2.566;2022-10-14T07:04:02;5.97;;;4.33;;
7675;SDS011;3880;51.464;-2.566;2022-10-14T07:06:29;5.83;;;3.97;;
7675;SDS011;3880;51.464;-2.566;2022-10-14T07:08:56;6.77;;;4.60;;
7675;SDS011;3880;51.464;-2.566;2022-10-14T07:11:23;7.47;;;4.23;;
7675;SDS011;3880;51.464;-2.566;2022-10-14T07:13:50;4.97;;;4.43;;
7675;SDS011;3880;51.464;-2.566;2022-10-14T07:16:17;6.50;;;3.90;;
7675;SDS011;3880;51.464;-2.566;2022-10-14T07:18:44;4.67;;;3.70;;
7675;SDS011;3880;51.464;-2.566;2022-10-14T07:21:13;6.10;;;4.33;;
7675;SDS011;3880;51.464;-2.566;2022-10-14T07:23:40;4.40;;;4.00;;
7675;SDS011;3880;51.464;-2.566;2022-10-14T07:26:07;8.40;;;3.90;;
7675;SDS011;3880;51.464;-2.566;2022-10-14T07:28:34;8.40;;;4.87;;
7675;SDS011;3880;51.464;-2.566;2022-10-14T07:31:02;6.07;;;3.93;;
7675;SDS011;3880;51.464;-2.566;2022-10-14T07:33:31;6.73;;;4.47;;
7675;SDS011;3880;51.464;-2.566;2022-10-14T07:36:00;6.37;;;4.73;;
7675;SDS011;3880;51.464;-2.566;2022-10-14T07:38:28;6.93;;;4.77;;
7675;SDS011;3880;51.464;-2.566;2022-10-14T07:40:56;13.70;;;5.03;;
7675;SDS011;3880;51.464;-2.566;2022-10-14T07:43:24;8.70;;;4.63;;
7675;SDS011;3880;51.464;-2.566;2022-10-14T07:45:51;6.73;;;5.33;;
7675;SDS011;3880;51.464;-2.566;2022-10-14T07:48:24;5.80;;;4.47;;
7675;SDS011;3880;51.464;-2.566;2022-10-14T07:50:52;9.10;;;4.57;;
7675;SDS011;3880;51.464;-2.566;2022-10-14T07:53:19;5.60;;;5.10;;
7675;SDS011;3880;51.464;-2.566;2022-10-14T07:55:48;5.93;;;4.60;;
7675;SDS011;3880;51.464;-2.566;2022-10-14T07:58:20;9.80;;;4.50;;
7675;SDS011;3880;51.464;-2.566;2022-10-14T08:00:48;5.70;;;4.07;;
7675;SDS011;3880;51.464;-2.566;2022-10-14T08:03:16;5.80;;;3.83;;
7675;SDS011;3880;51.464;-2.566;2022-10-14T08:05:44;8.43;;;4.43;;
7675;SDS011;3880;51.464;-2.566;2022-10-14T08:08:11;6.87;;;3.73;;
7675;SDS011;3880;51.464;-2.566;2022-10-14T08:10:39;3.93;;;3.10;;
7675;SDS011;3880;51.464;-2.566;2022-10-14T08:13:08;5.03;;;3.60;;
7675;SDS011;3880;51.464;-2.566;2022-10-14T08:15:36;5.80;;;3.47;;
7675;SDS011;3880;51.464;-2.566;2022-10-14T08:18:05;5.57;;;3.43;;
7675;SDS011;3880;51.464;-2.566;2022-10-14T08:20:33;4.07;;;3.30;;
7675;SDS011;3880;51.464;-2.566;2022-10-14T08:23:00;6.20;;;3.63;;
7675;SDS011;3880;51.464;-2.566;2022-10-14T08:25:27;3.43;;;3.10;;
7675;SDS011;3880;51.464;-2.566;2022-10-14T08:27:54;6.37;;;2.90;;
7675;SDS011;3880;51.464;-2.566;2022-10-14T08:30:24;5.77;;;2.93;;
7675;SDS011;3880;51.464;-2.566;2022-10-14T08:32:51;4.57;;;2.70;;
7675;SDS011;3880;51.464;-2.566;2022-10-14T08:35:18;5.93;;;3.47;;
7675;SDS011;3880;51.464;-2.566;2022-10-14T08:37:53;8.33;;;3.07;;
7675;SDS011;3880;51.464;-2.566;2022-10-14T08:40:22;4.53;;;2.93;;
7675;SDS011;3880;51.464;-2.566;2022-10-14T08:42:50;9.13;;;3.77;;
7675;SDS011;3880;51.464;-2.566;2022-10-14T08:45:26;7.57;;;4.50;;
7675;SDS011;3880;51.464;-2.566;2022-10-14T08:47:59;4.90;;;3.73;;
7675;SDS011;3880;51.464;-2.566;2022-10-14T08:50:35;9.50;;;4.93;;
7675;SDS011;3880;51.464;-2.566;2022-10-14T08:53:08;7.27;;;4.73;;
7675;SDS011;3880;51.464;-2.566;2022-10-14T08:55:39;7.53;;;3.53;;
7675;SDS011;3880;51.464;-2.566;2022-10-14T08:58:10;3.23;;;3.00;;
7675;SDS011;3880;51.464;-2.566;2022-10-14T09:00:43;3.53;;;2.60;;
7675;SDS011;3880;51.464;-2.566;2022-10-14T09:03:15;2.67;;;2.47;;
7675;SDS011;3880;51.464;-2.566;2022-10-14T09:05:48;2.90;;;2.50;;
7675;SDS011;3880;51.464;-2.566;2022-10-14T09:08:23;2.63;;;2.20;;
7675;SDS011;3880;51.464;-2.566;2022-10-14T09:10:55;2.40;;;1.70;;
7675;SDS011;3880;51.464;-2.566;2022-10-14T09:13:25;2.10;;;1.53;;
7675;SDS011;3880;51.464;-2.566;2022-10-14T09:15:59;1.70;;;1.60;;
7675;SDS011;3880;51.464;-2.566;2022-10-14T09:18:32;1.33;;;1.23;;
7675;SDS011;3880;51.464;-2.566;2022-10-14T09:21:02;4.60;;;1.27;;
7675;SDS011;3880;51.464;-2.566;2022-10-14T09:23:47;1.67;;;1.57;;
7675;SDS011;3880;51.464;-2.566;2022-10-14T09:26:20;1.50;;;1.40;;
7675;SDS011;3880;51.464;-2.566;2022-10-14T09:28:47;1.70;;;1.60;;
7675;SDS011;3880;51.464;-2.566;2022-10-14T09:31:19;1.50;;;1.40;;
7675;SDS011;3880;51.464;-2.566;2022-10-14T09:33:46;1.97;;;1.50;;
7675;SDS011;3880;51.464;-2.566;2022-10-14T09:36:15;2.43;;;1.43;;
7675;SDS011;3880;51.464;-2.566;2022-10-14T09:38:44;1.80;;;1.43;;
7675;SDS011;3880;51.464;-2.566;2022-10-14T09:41:15;3.70;;;1.83;;
7675;SDS011;3880;51.464;-2.566;2022-10-14T09:46:46;2.20;;;1.40;;
7675;SDS011;3880;51.464;-2.566;2022-10-14T09:49:16;2.10;;;2.00;;
7675;SDS011;3880;51.464;-2.566;2022-10-14T09:51:47;2.30;;;1.60;;
7675;SDS011;3880;51.464;-2.566;2022-10-14T09:54:21;4.53;;;1.80;;
7675;SDS011;3880;51.464;-2.566;2022-10-14T09:56:57;4.40;;;2.10;;
7675;SDS011;3880;51.464;-2.566;2022-10-14T09:59:29;2.27;;;2.07;;
7675;SDS011;3880;51.464;-2.566;2022-10-14T10:01:59;4.60;;;1.80;;
7675;SDS011;3880;51.464;-2.566;2022-10-14T10:04:32;3.53;;;1.77;;
7675;SDS011;3880;51.464;-2.566;2022-10-14T10:07:02;2.20;;;1.90;;
7675;SDS011;3880;51.464;-2.566;2022-10-14T10:09:31;3.97;;;2.37;;
7675;SDS011;3880;51.464;-2.566;2022-10-14T10:11:58;3.33;;;1.90;;
7675;SDS011;3880;51.464;-2.566;2022-10-14T10:14:26;2.70;;;1.90;;
7675;SDS011;3880;51.464;-2.566;2022-10-14T10:17:16;2.40;;;1.73;;
7675;SDS011;3880;51.464;-2.566;2022-10-14T10:19:44;2.10;;;1.67;;
7675;SDS011;3880;51.464;-2.566;2022-10-14T10:22:18;2.63;;;1.73;;
7675;SDS011;3880;51.464;-2.566;2022-10-14T10:24:48;5.40;;;2.00;;
7675;SDS011;3880;51.464;-2.566;2022-10-14T10:27:20;4.17;;;2.10;;
7675;SDS011;3880;51.464;-2.566;2022-10-14T10:29:50;2.00;;;1.90;;
7675;SDS011;3880;51.464;-2.566;2022-10-14T10:32:22;9.63;;;2.30;;
7675;SDS011;3880;51.464;-2.566;2022-10-14T10:35:09;4.30;;;1.90;;
7675;SDS011;3880;51.464;-2.566;2022-10-14T10:37:47;3.33;;;1.83;;
7675;SDS011;3880;51.464;-2.566;2022-10-14T10:40:30;2.73;;;2.03;;
7675;SDS011;3880;51.464;-2.566;2022-10-14T10:46:05;3.30;;;2.33;;
7675;SDS011;3880;51.464;-2.566;2022-10-14T10:48:44;2.23;;;1.87;;
7675;SDS011;3880;51.464;-2.566;2022-10-14T10:51:15;3.57;;;2.03;;
7675;SDS011;3880;51.464;-2.566;2022-10-14T10:54:03;4.40;;;1.47;;
7675;SDS011;3880;51.464;-2.566;2022-10-14T10:56:36;2.10;;;1.40;;
7675;SDS011;3880;51.464;-2.566;2022-10-14T11:02:02;2.10;;;1.47;;
7675;SDS011;3880;51.464;-2.566;2022-10-14T11:04:48;1.70;;;1.60;;
7675;SDS011;3880;51.464;-2.566;2022-10-14T11:07:20;2.43;;;1.37;;
7675;SDS011;3880;51.464;-2.566;2022-10-14T11:10:14;1.73;;;1.50;;
7675;SDS011;3880;51.464;-2.566;2022-10-14T11:13:09;1.93;;;1.17;;
7675;SDS011;3880;51.464;-2.566;2022-10-14T11:15:45;2.73;;;1.67;;
7675;SDS011;3880;51.464;-2.566;2022-10-14T11:18:23;1.90;;;1.63;;
7675;SDS011;3880;51.464;-2.566;2022-10-14T11:21:02;1.93;;;1.70;;
7675;SDS011;3880;51.464;-2.566;2022-10-14T11:23:36;6.50;;;1.90;;
7675;SDS011;3880;51.464;-2.566;2022-10-14T11:26:24;4.10;;;1.90;;
7675;SDS011;3880;51.464;-2.566;2022-10-14T11:29:08;3.37;;;2.00;;
7675;SDS011;3880;51.464;-2.566;2022-10-14T11:31:47;7.87;;;3.37;;
7675;SDS011;3880;51.464;-2.566;2022-10-14T11:34:28;5.93;;;2.37;;
7675;SDS011;3880;51.464;-2.566;2022-10-14T11:37:09;3.07;;;2.20;;
7675;SDS011;3880;51.464;-2.566;2022-10-14T11:39:52;2.47;;;1.97;;
7675;SDS011;3880;51.464;-2.566;2022-10-14T11:42:29;3.63;;;1.93;;
7675;SDS011;3880;51.464;-2.566;2022-10-14T11:48:10;10.63;;;3.30;;
7675;SDS011;3880;51.464;-2.566;2022-10-14T11:50:50;8.27;;;2.43;;
7675;SDS011;3880;51.464;-2.566;2022-10-14T11:53:23;3.43;;;2.20;;
7675;SDS011;3880;51.464;-2.566;2022-10-14T11:56:07;3.17;;;1.87;;
7675;SDS011;3880;51.464;-2.566;2022-10-14T11:58:42;2.33;;;1.70;;
7675;SDS011;3880;51.464;-2.566;2022-10-14T12:01:12;3.73;;;2.00;;
7675;SDS011;3880;51.464;-2.566;2022-10-14T12:03:45;1.97;;;1.70;;
7675;SDS011;3880;51.464;-2.566;2022-10-14T12:06:18;5.53;;;2.33;;
7675;SDS011;3880;51.464;-2.566;2022-10-14T12:08:53;4.97;;;2.33;;
7675;SDS011;3880;51.464;-2.566;2022-10-14T12:11:26;3.37;;;2.00;;
7675;SDS011;3880;51.464;-2.566;2022-10-14T12:13:58;3.90;;;2.57;;
7675;SDS011;3880;51.464;-2.566;2022-10-14T12:16:29;3.03;;;1.97;;
7675;SDS011;3880;51.464;-2.566;2022-10-14T12:18:58;5.10;;;2.57;;
7675;SDS011;3880;51.464;-2.566;2022-10-14T12:21:26;2.23;;;2.00;;
7675;SDS011;3880;51.464;-2.566;2022-10-14T12:24:02;2.40;;;1.90;;
7675;SDS011;3880;51.464;-2.566;2022-10-14T12:26:41;2.83;;;1.95;;
7675;SDS011;3880;51.464;-2.566;2022-10-14T12:29:14;2.95;;;1.77;;
7675;SDS011;3880;51.464;-2.566;2022-10-14T12:31:47;2.95;;;1.73;;
7675;SDS011;3880;51.464;-2.566;2022-10-14T12:34:25;4.50;;;1.50;;
7675;SDS011;3880;51.464;-2.566;2022-10-14T12:36:56;4.07;;;1.92;;
7675;SDS011;3880;51.464;-2.566;2022-10-14T12:39:32;4.82;;;2.20;;
7675;SDS011;3880;51.464;-2.566;2022-10-14T12:42:01;2.25;;;1.35;;
7675;SDS011;3880;51.464;-2.566;2022-10-14T12:44:33;4.53;;;1.90;;
7675;SDS011;3880;51.464;-2.566;2022-10-14T12:47:14;4.70;;;1.27;;
7675;SDS011;3880;51.464;-2.566;2022-10-14T12:49:45;7.53;;;3.33;;
7675;SDS011;3880;51.464;-2.566;2022-10-14T12:52:17;5.00;;;1.98;;
7675;SDS011;3880;51.464;-2.566;2022-10-14T12:54:50;4.22;;;1.48;;
7675;SDS011;3880;51.464;-2.566;2022-10-14T12:57:21;8.50;;;2.50;;
7675;SDS011;3880;51.464;-2.566;2022-10-14T12:59:53;4.97;;;2.40;;
7675;SDS011;3880;51.464;-2.566;2022-10-14T13:02:25;3.92;;;1.73;;
7675;SDS011;3880;51.464;-2.566;2022-10-14T13:04:57;7.55;;;2.17;;
7675;SDS011;3880;51.464;-2.566;2022-10-14T13:07:29;4.22;;;1.75;;
7675;SDS011;3880;51.464;-2.566;2022-10-14T13:19:39;3.92;;;2.00;;
7675;SDS011;3880;51.464;-2.566;2022-10-14T13:25:03;1.65;;;1.30;;
7675;SDS011;3880;51.464;-2.566;2022-10-14T13:27:45;4.03;;;1.80;;
7675;SDS011;3880;51.464;-2.566;2022-10-14T13:30:19;5.82;;;2.20;;
7675;SDS011;3880;51.464;-2.566;2022-10-14T13:32:56;3.05;;;1.85;;
7675;SDS011;3880;51.464;-2.566;2022-10-14T13:35:31;11.73;;;5.72;;
7675;SDS011;3880;51.464;-2.566;2022-10-14T13:38:03;6.13;;;2.05;;
7675;SDS011;3880;51.464;-2.566;2022-10-14T13:40:34;6.05;;;3.40;;
7675;SDS011;3880;51.464;-2.566;2022-10-14T13:43:05;4.87;;;2.67;;
7675;SDS011;3880;51.464;-2.566;2022-10-14T13:45:33;7.93;;;3.80;;
7675;SDS011;3880;51.464;-2.566;2022-10-14T13:48:08;6.77;;;2.23;;
7675;SDS011;3880;51.464;-2.566;2022-10-14T13:50:42;13.97;;;2.70;;
7675;SDS011;3880;51.464;-2.566;2022-10-14T13:53:13;7.33;;;2.40;;
7675;SDS011;3880;51.464;-2.566;2022-10-14T13:55:42;6.90;;;2.60;;
7675;SDS011;3880;51.464;-2.566;2022-10-14T13:58:10;7.03;;;2.33;;
7675;SDS011;3880;51.464;-2.566;2022-10-14T14:00:40;6.60;;;2.90;;
7675;SDS011;3880;51.464;-2.566;2022-10-14T14:03:16;7.93;;;4.30;;
7675;SDS011;3880;51.464;-2.566;2022-10-14T14:05:48;5.73;;;2.20;;
7675;SDS011;3880;51.464;-2.566;2022-10-14T14:08:16;3.63;;;1.80;;
7675;SDS011;3880;51.464;-2.566;2022-10-14T14:10:51;8.03;;;2.23;;
7675;SDS011;3880;51.464;-2.566;2022-10-14T14:13:20;5.97;;;2.87;;
7675;SDS011;3880;51.464;-2.566;2022-10-14T14:15:48;8.87;;;3.80;;
7675;SDS011;3880;51.464;-2.566;2022-10-14T14:18:24;4.87;;;2.07;;
7675;SDS011;3880;51.464;-2.566;2022-10-14T14:20:56;8.00;;;2.07;;
7675;SDS011;3880;51.464;-2.566;2022-10-14T14:23:24;5.77;;;2.77;;
7675;SDS011;3880;51.464;-2.566;2022-10-14T14:25:52;3.77;;;2.20;;
7675;SDS011;3880;51.464;-2.566;2022-10-14T14:28:19;5.13;;;2.23;;
7675;SDS011;3880;51.464;-2.566;2022-10-14T14:30:47;5.30;;;2.20;;
7675;SDS011;3880;51.464;-2.566;2022-10-14T14:33:17;5.10;;;2.70;;
7675;SDS011;3880;51.464;-2.566;2022-10-14T14:35:51;6.47;;;1.77;;
7675;SDS011;3880;51.464;-2.566;2022-10-14T14:38:26;9.03;;;2.60;;
7675;SDS011;3880;51.464;-2.566;2022-10-14T14:40:59;6.80;;;1.97;;
7675;SDS011;3880;51.464;-2.566;2022-10-14T14:43:28;8.33;;;2.63;;
7675;SDS011;3880;51.464;-2.566;2022-10-14T14:45:56;9.13;;;4.03;;
7675;SDS011;3880;51.464;-2.566;2022-10-14T14:48:26;6.67;;;2.57;;
7675;SDS011;3880;51.464;-2.566;2022-10-14T14:50:55;6.00;;;3.10;;
7675;SDS011;3880;51.464;-2.566;2022-10-14T14:53:23;7.33;;;2.17;;
7675;SDS011;3880;51.464;-2.566;2022-10-14T14:55:58;8.10;;;5.73;;
7675;SDS011;3880;51.464;-2.566;2022-10-14T14:58:27;6.03;;;2.20;;
7675;SDS011;3880;51.464;-2.566;2022-10-14T15:00:58;16.77;;;7.53;;
7675;SDS011;3880;51.464;-2.566;2022-10-14T15:03:26;7.93;;;2.70;;
7675;SDS011;3880;51.464;-2.566;2022-10-14T15:05:55;10.03;;;2.90;;
7675;SDS011;3880;51.464;-2.566;2022-10-14T15:08:26;7.13;;;3.93;;
7675;SDS011;3880;51.464;-2.566;2022-10-14T15:10:54;7.57;;;2.70;;
7675;SDS011;3880;51.464;-2.566;2022-10-14T15:16:09;8.87;;;2.60;;
7675;SDS011;3880;51.464;-2.566;2022-10-14T15:18:36;8.80;;;3.43;;
7675;SDS011;3880;51.464;-2.566;2022-10-14T15:21:12;11.13;;;3.33;;
7675;SDS011;3880;51.464;-2.566;2022-10-14T15:23:43;8.50;;;2.60;;
7675;SDS011;3880;51.464;-2.566;2022-10-14T15:26:28;10.10;;;3.30;;
7675;SDS011;3880;51.464;-2.566;2022-10-14T15:29:13;15.80;;;6.30;;
7675;SDS011;3880;51.464;-2.566;2022-10-14T15:31:43;12.37;;;3.23;;
7675;SDS011;3880;51.464;-2.566;2022-10-14T15:34:16;13.43;;;5.50;;
7675;SDS011;3880;51.464;-2.566;2022-10-14T15:36:47;14.33;;;3.70;;
7675;SDS011;3880;51.464;-2.566;2022-10-14T15:39:16;9.20;;;3.30;;
7675;SDS011;3880;51.464;-2.566;2022-10-14T15:41:44;10.17;;;3.50;;
7675;SDS011;3880;51.464;-2.566;2022-10-14T15:44:11;10.27;;;3.90;;
7675;SDS011;3880;51.464;-2.566;2022-10-14T15:46:38;8.50;;;2.90;;
7675;SDS011;3880;51.464;-2.566;2022-10-14T15:49:26;5.47;;;3.17;;
7675;SDS011;3880;51.464;-2.566;2022-10-14T15:51:55;10.97;;;3.07;;